Stevensville, MT (59870)

10:36 AM MST on February 11, 2016 (GMT -0700)
SteviBigSky | | Change Station
CLOSE
Current Station
Personal Weather Station
Location: Stevensville, MT
Elevation: 3415 ft
Nearby Weather Stations

Elev 3415 ft 46.49 °N, 114.07 °W | Updated 2 seconds ago

Partly Cloudy
Partly Cloudy
41.9 °F
Feels Like 38 °F
N
6.7
Wind Variable Wind from NE
Gusts 7.4 mph

Today
High -- | Low -- °F
--% Chance of Precip.
Yesterday
High -- | Low -- °F
Precip. -- in
Pressure 30.40 in
Visibility 10.0 miles
Clouds Clear
Windchill 38 °F
Dew Point 32 °F
Humidity 67%
Rainfall 0.00 in
Snow Depth Not available.
7:46 AM 5:54 PM
Waxing Crescent, 13% visible
METAR KMSO 111653Z 00000KT 10SM CLR 01/M01 A3032 RMK AO2 SLP294 T00111011
Pressure 30.40 in
Visibility 10.0 miles
Clouds Clear
Windchill 38 °F
Dew Point 32 °F
Humidity 67%
Rainfall 0.00 in
Snow Depth Not available.
7:46 AM 5:54 PM
Waxing Crescent, 13% visible
METAR KMSO 111653Z 00000KT 10SM CLR 01/M01 A3032 RMK AO2 SLP294 T00111011

10-Day Weather Forecast

Almanac

Astronomy

Feb. 11, 2016 Rise Set
Actual Time
Civil Twilight
Nautical Twilight
Astronomical Twilight
Moon
Length of Visible Light
Length of Day
Tomorrow will be .
, % of the Moon is Illuminated

Today's Extremes

State Highs State Lows

Community

WunderPhotos

Upload Photos

1,892,109 photos uploaded!

WunderBlog® & News

Nearby

Air Quality

  Air Quality AQ Index Pollutant
Not available.

Snow Depth

Station Depth Elevation

Earthquake Activity

City Distance Mag. Time & Date
Minimum magnitude displayed is 2.5.

Coastal Water Temperatures

Place Temperature

Stations

Nearby Weather Stations

Station Location Temp. Windchill Dew Point Humidity Wind Precip. Elev Updated Type
                   

Watches & Warnings

There are currently no watches in effect.